createdAt,value
2022-12-11T00:00:53.527Z,-1.17
2022-12-11T00:03:20.810Z,-1.14
2022-12-11T00:05:47.919Z,-1.21
2022-12-11T00:08:15.110Z,-1.04
2022-12-11T00:10:49.771Z,-1.02
2022-12-11T00:13:16.856Z,-0.90
2022-12-11T00:15:43.933Z,-0.81
2022-12-11T00:18:14.670Z,-0.77
2022-12-11T00:20:41.878Z,-0.80
2022-12-11T00:23:08.961Z,-1.00
2022-12-11T00:25:35.994Z,-0.97
2022-12-11T00:28:03.004Z,-0.98
2022-12-11T00:30:29.969Z,-0.95
2022-12-11T00:32:56.945Z,-1.05
2022-12-11T00:35:23.980Z,-1.16
2022-12-11T00:37:51.017Z,-1.19
2022-12-11T00:40:18.055Z,-1.20
2022-12-11T00:42:45.056Z,-1.20
2022-12-11T00:45:12.261Z,-1.33
2022-12-11T00:47:39.802Z,-1.33
2022-12-11T00:50:07.761Z,-1.46
2022-12-11T00:52:35.577Z,-1.22
2022-12-11T00:55:02.605Z,-1.27
2022-12-11T00:57:29.559Z,-1.32
2022-12-11T00:59:56.554Z,-1.39
2022-12-11T01:02:23.719Z,-1.36
2022-12-11T01:04:50.777Z,-1.33
2022-12-11T01:07:17.893Z,-1.42
2022-12-11T01:10:03.471Z,-1.39
2022-12-11T01:12:30.467Z,-1.40
2022-12-11T01:14:57.460Z,-1.41
2022-12-11T01:17:24.465Z,-1.34
2022-12-11T01:19:54.930Z,-1.43
2022-12-11T01:22:21.983Z,-1.20
2022-12-11T01:24:49.323Z,-1.36
2022-12-11T01:27:16.452Z,-1.31
2022-12-11T01:29:43.526Z,-1.45
2022-12-11T01:32:10.479Z,-1.45
2022-12-11T01:34:37.536Z,-1.34
2022-12-11T01:37:04.858Z,-1.38
2022-12-11T01:39:31.829Z,-1.49
2022-12-11T01:42:01.304Z,-1.41
2022-12-11T01:44:31.105Z,-1.41
2022-12-11T01:46:58.518Z,-1.41
2022-12-11T01:49:28.450Z,-1.41
2022-12-11T01:52:32.284Z,-1.31
2022-12-11T01:54:59.469Z,-1.30
2022-12-11T01:57:26.466Z,-1.45
2022-12-11T01:59:53.598Z,-1.50
2022-12-11T02:02:32.273Z,-1.53
2022-12-11T02:05:01.579Z,-1.47
2022-12-11T02:07:37.228Z,-1.52
2022-12-11T02:10:05.312Z,-1.42
2022-12-11T02:13:02.334Z,-1.36
2022-12-11T02:16:31.101Z,-1.17
2022-12-11T02:19:33.340Z,-1.27
2022-12-11T02:22:05.210Z,-1.08
2022-12-11T02:25:22.070Z,-1.21
2022-12-11T02:28:41.284Z,-1.26
2022-12-11T02:31:40.821Z,-1.20
2022-12-11T02:34:19.967Z,-1.35
2022-12-11T02:36:57.790Z,-1.26
2022-12-11T02:39:27.352Z,-1.37
2022-12-11T02:41:55.340Z,-1.44
2022-12-11T02:44:29.530Z,-1.34
2022-12-11T02:46:57.456Z,-1.55
2022-12-11T02:49:26.750Z,-1.43
2022-12-11T02:51:55.018Z,-1.37
2022-12-11T02:54:30.546Z,-1.35
2022-12-11T02:57:08.559Z,-1.16
2022-12-11T02:59:46.753Z,-1.31
2022-12-11T03:02:15.501Z,-1.40
2022-12-11T03:04:44.371Z,-1.36
2022-12-11T03:07:25.335Z,-1.45
2022-12-11T03:09:53.385Z,-1.34
2022-12-11T03:12:32.661Z,-1.50
2022-12-11T03:15:03.886Z,-1.37
2022-12-11T03:17:54.327Z,-1.28
2022-12-11T03:21:02.124Z,-1.24
2022-12-11T03:23:48.318Z,-1.30
2022-12-11T03:26:17.208Z,-1.31
2022-12-11T03:29:11.835Z,-1.25
2022-12-11T03:31:49.597Z,-1.30
2022-12-11T03:35:05.764Z,-1.31
2022-12-11T03:37:38.981Z,-1.34
2022-12-11T03:40:16.104Z,-1.12
2022-12-11T03:42:47.169Z,-1.01
2022-12-11T03:45:16.033Z,-1.00
2022-12-11T03:47:45.111Z,-0.95
2022-12-11T03:50:16.381Z,-1.24
2022-12-11T03:52:46.596Z,-1.24
2022-12-11T03:55:17.293Z,-1.19
2022-12-11T03:57:44.739Z,-1.35
2022-12-11T04:00:18.412Z,-1.34
2022-12-11T04:03:12.717Z,-1.62
2022-12-11T04:05:44.988Z,-1.47
2022-12-11T04:08:12.494Z,-1.60
2022-12-11T04:10:41.005Z,-1.53
2022-12-11T04:13:10.116Z,-1.50
2022-12-11T04:15:38.733Z,-1.74
2022-12-11T04:18:26.473Z,-1.85
2022-12-11T04:21:14.402Z,-1.77
2022-12-11T04:23:59.899Z,-1.66
2022-12-11T04:26:27.048Z,-1.58
2022-12-11T04:28:54.330Z,-1.52
2022-12-11T04:31:22.534Z,-1.49
2022-12-11T04:33:49.931Z,-1.41
2022-12-11T04:36:17.774Z,-1.61
2022-12-11T04:38:44.792Z,-1.59
2022-12-11T04:41:15.545Z,-1.51
2022-12-11T04:43:47.095Z,-1.56
2022-12-11T04:46:16.394Z,-1.69
2022-12-11T04:48:44.553Z,-1.93
2022-12-11T04:51:12.661Z,-1.87
2022-12-11T04:53:39.933Z,-1.76
2022-12-11T04:56:10.468Z,-1.76
2022-12-11T04:58:38.957Z,-1.67
2022-12-11T05:01:19.704Z,-1.70
2022-12-11T05:03:47.466Z,-1.75
2022-12-11T05:06:15.316Z,-1.67
2022-12-11T05:08:45.128Z,-1.76
2022-12-11T05:11:15.260Z,-1.65
2022-12-11T05:13:43.085Z,-1.70
2022-12-11T05:16:14.190Z,-1.68
2022-12-11T05:18:41.709Z,-1.63
2022-12-11T05:21:13.212Z,-1.84
2022-12-11T05:23:41.369Z,-1.73
2022-12-11T05:26:17.021Z,-1.67
2022-12-11T05:28:45.401Z,-1.77
2022-12-11T05:31:17.560Z,-1.96
2022-12-11T05:33:46.514Z,-1.92
2022-12-11T05:36:25.418Z,-1.91
2022-12-11T05:38:53.733Z,-1.99
2022-12-11T05:41:24.452Z,-2.04
2022-12-11T05:43:52.071Z,-2.09
2022-12-11T05:46:26.550Z,-1.99
2022-12-11T05:49:00.933Z,-2.22
2022-12-11T05:51:29.871Z,-2.20
2022-12-11T05:53:58.145Z,-2.17
2022-12-11T05:56:30.526Z,-2.38
2022-12-11T05:58:59.696Z,-2.24
2022-12-11T06:01:41.444Z,-2.32
2022-12-11T06:04:10.875Z,-2.29
2022-12-11T06:06:38.505Z,-2.33
2022-12-11T06:09:06.643Z,-2.40
2022-12-11T06:11:35.852Z,-2.37
2022-12-11T06:14:04.104Z,-2.44
2022-12-11T06:16:32.124Z,-2.33
2022-12-11T06:18:59.364Z,-2.32
2022-12-11T06:21:32.182Z,-2.34
2022-12-11T06:24:03.810Z,-2.30
2022-12-11T06:26:31.934Z,-2.30
2022-12-11T06:28:59.054Z,-2.49
2022-12-11T06:31:26.375Z,-2.43
2022-12-11T06:33:54.204Z,-2.55
2022-12-11T06:36:24.226Z,-2.45
2022-12-11T06:38:52.778Z,-2.48
2022-12-11T06:41:19.849Z,-2.51
2022-12-11T06:43:47.040Z,-2.49
2022-12-11T06:46:20.113Z,-2.55
2022-12-11T06:48:48.788Z,-2.50
2022-12-11T06:51:22.831Z,-2.62
2022-12-11T06:53:56.099Z,-2.38
2022-12-11T06:56:25.028Z,-2.20
2022-12-11T06:58:52.666Z,-2.42
2022-12-11T07:01:26.293Z,-2.27
2022-12-11T07:03:59.807Z,-2.18
2022-12-11T07:06:28.560Z,-2.30
2022-12-11T07:08:56.155Z,-2.25
2022-12-11T07:11:23.687Z,-2.28
2022-12-11T07:13:50.968Z,-2.48
2022-12-11T07:16:18.909Z,-2.38
2022-12-11T07:18:51.406Z,-2.46
2022-12-11T07:21:20.389Z,-2.41
2022-12-11T07:23:48.826Z,-2.62
2022-12-11T07:26:20.067Z,-2.54
2022-12-11T07:28:47.492Z,-2.61
2022-12-11T07:31:26.378Z,-2.46
2022-12-11T07:34:04.768Z,-2.43
2022-12-11T07:36:33.810Z,-2.36
2022-12-11T07:39:01.917Z,-2.27
2022-12-11T07:41:29.089Z,-2.32
2022-12-11T07:43:56.501Z,-2.35
2022-12-11T07:46:27.661Z,-2.34
2022-12-11T07:48:55.103Z,-2.50
2022-12-11T07:51:35.416Z,-2.62
2022-12-11T07:54:12.861Z,-2.56
2022-12-11T07:56:43.671Z,-2.36
2022-12-11T07:59:11.088Z,-2.36
2022-12-11T08:01:39.917Z,-2.38
2022-12-11T08:04:11.465Z,-2.30
2022-12-11T08:06:40.303Z,-2.34
2022-12-11T08:09:20.609Z,-2.19
2022-12-11T08:11:50.665Z,-2.37
2022-12-11T08:14:19.429Z,-2.43
2022-12-11T08:16:47.026Z,-2.23
2022-12-11T08:19:14.662Z,-2.33
2022-12-11T08:21:41.983Z,-2.18
2022-12-11T08:24:10.086Z,-2.05
2022-12-11T08:26:37.383Z,-2.39
2022-12-11T08:29:04.569Z,-2.29
2022-12-11T08:31:31.698Z,-2.30
2022-12-11T08:33:58.973Z,-2.38
2022-12-11T08:36:26.604Z,-2.39
2022-12-11T08:39:05.194Z,-2.40
2022-12-11T08:41:32.543Z,-2.02
2022-12-11T08:44:01.574Z,-2.00
2022-12-11T08:46:32.558Z,-2.04
2022-12-11T08:49:00.028Z,-2.16
2022-12-11T08:51:29.736Z,-1.83
2022-12-11T08:54:01.429Z,-2.09
2022-12-11T08:56:29.773Z,-2.38
2022-12-11T08:59:01.029Z,-2.33
2022-12-11T09:01:29.308Z,-2.37
2022-12-11T09:03:57.383Z,-2.31
2022-12-11T09:06:28.772Z,-2.00
2022-12-11T09:08:59.536Z,-2.12
2022-12-11T09:11:35.126Z,-1.96
2022-12-11T09:14:07.176Z,-1.89
2022-12-11T09:16:40.232Z,-2.02
2022-12-11T09:19:12.755Z,-2.00
2022-12-11T09:21:41.071Z,-1.93
2022-12-11T09:24:11.871Z,-1.81
2022-12-11T09:26:39.829Z,-1.71
2022-12-11T09:29:07.329Z,-1.80
2022-12-11T09:31:36.943Z,-1.87
2022-12-11T09:34:11.722Z,-1.75
2022-12-11T09:36:41.151Z,-1.88
2022-12-11T09:39:10.773Z,-1.96
2022-12-11T09:42:11.530Z,-1.86
2022-12-11T09:44:52.976Z,-1.69
2022-12-11T09:47:46.845Z,-1.98
2022-12-11T09:50:32.892Z,-1.76
2022-12-11T09:53:36.158Z,-1.81
2022-12-11T09:56:32.356Z,-1.75
2022-12-11T09:59:25.638Z,-1.86
2022-12-11T10:02:25.272Z,-1.79
2022-12-11T10:05:33.215Z,-2.06
2022-12-11T10:08:47.827Z,-2.10
2022-12-11T10:12:03.575Z,-1.85
2022-12-11T10:14:52.029Z,-1.96
2022-12-11T10:17:37.640Z,-1.88
2022-12-11T10:20:39.110Z,-1.93
2022-12-11T10:23:19.601Z,-1.87
2022-12-11T10:26:03.951Z,-1.69
2022-12-11T10:28:31.032Z,-1.93
2022-12-11T10:31:06.807Z,-2.09
2022-12-11T10:34:11.719Z,-1.69
2022-12-11T10:36:43.247Z,-1.82
2022-12-11T10:39:19.876Z,-1.96
2022-12-11T10:41:54.563Z,-1.74
2022-12-11T10:44:31.536Z,-1.73
2022-12-11T10:47:11.902Z,-1.53
2022-12-11T10:49:53.609Z,-1.41
2022-12-11T10:52:39.012Z,-1.65
2022-12-11T10:55:30.892Z,-1.67
2022-12-11T10:58:05.759Z,-1.56
2022-12-11T11:00:40.913Z,-1.70
2022-12-11T11:03:27.725Z,-1.61
2022-12-11T11:06:20.584Z,-1.18
2022-12-11T11:08:53.479Z,-1.44
2022-12-11T11:11:36.605Z,-1.26
2022-12-11T11:14:20.524Z,-1.32
2022-12-11T11:16:58.088Z,-1.31
2022-12-11T11:19:36.447Z,-1.41
2022-12-11T11:22:14.089Z,-1.49
2022-12-11T11:24:53.734Z,-1.29
2022-12-11T11:27:43.505Z,-1.26
2022-12-11T11:30:28.523Z,-1.08
2022-12-11T11:33:17.731Z,-1.21
2022-12-11T11:36:20.322Z,-1.20
2022-12-11T11:39:22.802Z,-1.05
2022-12-11T11:42:21.866Z,-1.03
2022-12-11T11:45:16.230Z,-1.33
2022-12-11T11:48:20.483Z,-0.84
2022-12-11T11:50:50.559Z,-1.16
2022-12-11T11:53:29.489Z,-0.67
2022-12-11T11:56:28.337Z,-1.25
2022-12-11T11:59:26.018Z,-1.03
2022-12-11T12:01:57.332Z,-1.05
2022-12-11T12:04:31.358Z,-1.25
2022-12-11T12:07:51.358Z,-0.92
2022-12-11T12:10:52.022Z,-1.15
2022-12-11T12:13:51.793Z,-0.94
2022-12-11T12:20:17.013Z,-1.20
2022-12-11T12:23:15.015Z,-1.02
2022-12-11T12:25:58.944Z,-1.15
2022-12-11T12:28:48.948Z,-0.80
2022-12-11T12:31:53.865Z,-1.04
2022-12-11T12:34:46.025Z,-0.89
2022-12-11T12:37:46.853Z,-0.93
2022-12-11T12:41:07.579Z,-0.96
2022-12-11T12:44:19.251Z,-0.75
2022-12-11T12:47:14.192Z,-0.88
2022-12-11T12:49:51.705Z,-1.07
2022-12-11T12:52:37.570Z,-0.73
2022-12-11T12:55:14.025Z,-0.71
2022-12-11T12:58:08.522Z,-0.74
2022-12-11T13:00:43.956Z,-0.52
2022-12-11T13:03:29.856Z,-0.56
2022-12-11T13:06:08.939Z,-0.53
2022-12-11T13:08:52.507Z,-0.47
2022-12-11T13:11:30.522Z,-0.73
2022-12-11T13:14:30.158Z,-0.86
2022-12-11T13:17:22.125Z,-0.86
2022-12-11T13:20:22.019Z,-0.85
2022-12-11T13:23:00.096Z,-0.87
2022-12-11T13:25:36.205Z,-0.91
2022-12-11T13:28:51.805Z,-0.66
2022-12-11T13:31:18.743Z,-0.63
2022-12-11T13:33:56.365Z,-0.79
2022-12-11T13:36:37.654Z,-0.89
2022-12-11T13:39:27.577Z,-0.81
2022-12-11T13:42:21.748Z,-0.73
2022-12-11T13:44:49.424Z,-0.48
2022-12-11T13:47:19.911Z,-0.83
2022-12-11T13:49:54.536Z,-0.63
2022-12-11T13:52:28.729Z,-0.50
2022-12-11T13:54:59.266Z,-0.73
2022-12-11T13:57:28.651Z,-0.77
2022-12-11T13:59:58.168Z,-0.85
2022-12-11T14:02:40.025Z,-0.91
2022-12-11T14:05:12.102Z,-0.72
2022-12-11T14:07:52.955Z,-0.79
2022-12-11T14:10:32.462Z,-0.61
2022-12-11T14:13:27.266Z,-0.54
2022-12-11T14:15:54.871Z,-0.81
2022-12-11T14:18:27.315Z,-0.99
2022-12-11T14:21:04.305Z,-1.09
2022-12-11T14:23:37.138Z,-0.85
2022-12-11T14:26:27.233Z,-0.81
2022-12-11T14:28:54.675Z,-0.90
2022-12-11T14:31:48.097Z,-1.15
2022-12-11T14:34:25.056Z,-0.99
2022-12-11T14:36:52.422Z,-1.15
2022-12-11T14:39:40.603Z,-1.09
2022-12-11T14:42:40.477Z,-1.16
2022-12-11T14:45:32.072Z,-1.16
2022-12-11T14:48:01.817Z,-1.24
2022-12-11T14:50:59.998Z,-1.16
2022-12-11T14:53:37.915Z,-1.21
2022-12-11T14:56:15.886Z,-1.24
2022-12-11T14:59:09.136Z,-1.17
2022-12-11T15:01:38.534Z,-1.31
2022-12-11T15:04:14.588Z,-1.25
2022-12-11T15:06:51.199Z,-1.17
2022-12-11T15:09:38.125Z,-1.29
2022-12-11T15:12:14.492Z,-1.10
2022-12-11T15:15:05.037Z,-1.15
2022-12-11T15:17:34.493Z,-1.18
2022-12-11T15:20:29.898Z,-1.01
2022-12-11T15:23:01.661Z,-0.93
2022-12-11T15:25:30.460Z,-0.81
2022-12-11T15:28:04.852Z,-0.79
2022-12-11T15:30:37.973Z,-0.72
2022-12-11T15:33:10.916Z,-0.72
2022-12-11T15:35:40.543Z,-0.83
2022-12-11T15:38:38.718Z,-0.97
2022-12-11T15:41:13.525Z,-0.95
2022-12-11T15:43:40.842Z,-1.10
2022-12-11T15:46:07.885Z,-1.08
2022-12-11T15:48:35.061Z,-1.06
2022-12-11T15:51:03.769Z,-1.18
2022-12-11T15:53:31.042Z,-1.09
2022-12-11T15:55:59.738Z,-1.02
2022-12-11T15:58:27.454Z,-0.98
2022-12-11T16:00:54.990Z,-0.90
2022-12-11T16:03:24.280Z,-0.87
2022-12-11T16:05:53.005Z,-1.13
2022-12-11T16:08:23.605Z,-1.12
2022-12-11T16:10:54.684Z,-1.04
2022-12-11T16:13:22.599Z,-0.99
2022-12-11T16:15:51.849Z,-1.05
2022-12-11T16:18:23.334Z,-1.14
2022-12-11T16:20:52.184Z,-1.19
2022-12-11T16:23:20.208Z,-1.05
2022-12-11T16:25:47.804Z,-1.07
2022-12-11T16:28:18.145Z,-1.14
2022-12-11T16:30:45.897Z,-1.18
2022-12-11T16:33:13.882Z,-1.14
2022-12-11T16:35:42.827Z,-1.22
2022-12-11T16:38:11.138Z,-1.24
2022-12-11T16:40:41.847Z,-1.21
2022-12-11T16:43:09.017Z,-1.34
2022-12-11T16:45:36.375Z,-1.34
2022-12-11T16:48:05.154Z,-1.22
2022-12-11T16:50:32.525Z,-1.09
2022-12-11T16:52:59.776Z,-1.21
2022-12-11T16:55:27.084Z,-1.28
2022-12-11T16:57:55.058Z,-1.34
2022-12-11T17:00:22.495Z,-1.34
2022-12-11T17:02:49.673Z,-1.41
2022-12-11T17:05:16.809Z,-1.39
2022-12-11T17:07:43.907Z,-1.41
2022-12-11T17:10:11.405Z,-1.33
2022-12-11T17:12:38.914Z,-1.37
2022-12-11T17:15:07.200Z,-1.32
2022-12-11T17:17:34.265Z,-1.44
2022-12-11T17:20:01.681Z,-1.49
2022-12-11T17:22:29.148Z,-1.36
2022-12-11T17:24:56.253Z,-1.56
2022-12-11T17:27:23.277Z,-1.38
2022-12-11T17:29:50.746Z,-1.33
2022-12-11T17:32:18.462Z,-1.31
2022-12-11T17:34:48.550Z,-1.27
2022-12-11T17:37:16.423Z,-1.31
2022-12-11T17:39:43.761Z,-1.21
2022-12-11T17:42:11.033Z,-1.25
2022-12-11T17:44:38.808Z,-1.24
2022-12-11T17:47:10.837Z,-1.14
2022-12-11T17:49:40.427Z,-1.11
2022-12-11T17:52:08.156Z,-1.32
2022-12-11T17:54:35.283Z,-1.30
2022-12-11T17:57:02.900Z,-1.28
2022-12-11T17:59:29.903Z,-1.31
2022-12-11T18:01:57.611Z,-1.19
2022-12-11T18:04:25.179Z,-1.21
2022-12-11T18:06:52.179Z,-1.20
2022-12-11T18:09:22.313Z,-1.20
2022-12-11T18:11:49.333Z,-1.26
2022-12-11T18:14:17.674Z,-1.33
2022-12-11T18:16:45.043Z,-1.20
2022-12-11T18:19:12.431Z,-1.20
2022-12-11T18:21:43.712Z,-1.19
2022-12-11T18:24:11.408Z,-1.22
2022-12-11T18:26:38.663Z,-1.20
2022-12-11T18:29:06.640Z,-1.20
2022-12-11T18:31:36.381Z,-1.17
2022-12-11T18:34:06.973Z,-1.17
2022-12-11T18:36:34.915Z,-1.20
2022-12-11T18:39:03.316Z,-1.12
2022-12-11T18:41:30.364Z,-1.03
2022-12-11T18:44:05.284Z,-1.03
2022-12-11T18:46:39.758Z,-0.98
2022-12-11T18:49:07.163Z,-1.17
2022-12-11T18:51:34.254Z,-1.17
2022-12-11T18:54:01.459Z,-1.08
2022-12-11T18:56:31.627Z,-1.06
2022-12-11T18:58:58.826Z,-1.07
2022-12-11T19:01:29.109Z,-1.03
2022-12-11T19:04:04.264Z,-1.30
2022-12-11T19:06:35.271Z,-1.40
2022-12-11T19:09:07.644Z,-1.41
2022-12-11T19:11:40.772Z,-1.25
2022-12-11T19:14:10.635Z,-1.27
2022-12-11T19:16:45.467Z,-1.15
2022-12-11T19:19:18.846Z,-1.21
2022-12-11T19:21:48.269Z,-1.19
2022-12-11T19:24:23.358Z,-1.22
2022-12-11T19:26:51.314Z,-1.18
2022-12-11T19:29:27.717Z,-1.12
2022-12-11T19:31:55.852Z,-1.16
2022-12-11T19:34:23.552Z,-1.12
2022-12-11T19:36:51.328Z,-1.33
2022-12-11T19:39:19.667Z,-1.17
2022-12-11T19:41:47.003Z,-1.15
2022-12-11T19:44:14.136Z,-1.09
2022-12-11T19:46:41.305Z,-1.24
2022-12-11T19:49:08.472Z,-1.06
2022-12-11T19:51:40.028Z,-1.06
2022-12-11T19:54:15.326Z,-0.93
2022-12-11T19:56:43.920Z,-1.30
2022-12-11T19:59:16.783Z,-1.05
2022-12-11T20:01:50.644Z,-1.19
2022-12-11T20:04:18.386Z,-1.16
2022-12-11T20:06:47.420Z,-0.96
2022-12-11T20:09:15.942Z,-0.89
2022-12-11T20:11:45.495Z,-0.82
2022-12-11T20:14:26.655Z,-0.90
2022-12-11T20:17:13.754Z,-0.86
2022-12-11T20:19:42.124Z,-0.85
2022-12-11T20:22:09.460Z,-0.80
2022-12-11T20:24:37.031Z,-0.87
2022-12-11T20:27:04.728Z,-0.95
2022-12-11T20:29:31.944Z,-1.02
2022-12-11T20:32:02.005Z,-0.91
2022-12-11T20:34:29.092Z,-0.86
2022-12-11T20:36:56.392Z,-0.88
2022-12-11T20:39:24.757Z,-1.09
2022-12-11T20:41:51.889Z,-1.03
2022-12-11T20:44:20.018Z,-0.89
2022-12-11T20:46:47.094Z,-0.88
2022-12-11T20:49:14.143Z,-0.98
2022-12-11T20:51:41.936Z,-0.78
2022-12-11T20:54:09.081Z,-0.81
2022-12-11T20:56:38.601Z,-0.79
2022-12-11T20:59:05.930Z,-0.75
2022-12-11T21:01:40.155Z,-0.77
2022-12-11T21:04:07.370Z,-0.84
2022-12-11T21:06:40.546Z,-0.81
2022-12-11T21:09:18.974Z,-1.15
2022-12-11T21:11:49.198Z,-0.97
2022-12-11T21:14:18.648Z,-0.83
2022-12-11T21:16:46.848Z,-0.79
2022-12-11T21:19:17.136Z,-0.82
2022-12-11T21:21:45.910Z,-0.88
2022-12-11T21:24:26.397Z,-0.87
2022-12-11T21:26:57.640Z,-0.91
2022-12-11T21:29:29.151Z,-0.94
2022-12-11T21:31:56.848Z,-0.95
2022-12-11T21:34:25.757Z,-1.06
2022-12-11T21:36:57.060Z,-0.97
2022-12-11T21:39:26.675Z,-0.93
2022-12-11T21:41:53.750Z,-0.92
2022-12-11T21:47:08.847Z,-0.94
2022-12-11T21:49:36.823Z,-0.98
2022-12-11T21:52:04.595Z,-1.06
2022-12-11T21:54:31.586Z,-1.11
2022-12-11T21:57:00.281Z,-1.02
2022-12-11T21:59:28.533Z,-1.28
2022-12-11T22:01:56.480Z,-1.27
2022-12-11T22:04:23.871Z,-1.31
2022-12-11T22:06:50.970Z,-1.27
2022-12-11T22:09:18.355Z,-1.27
2022-12-11T22:11:58.674Z,-1.19
2022-12-11T22:14:33.228Z,-1.45
2022-12-11T22:17:00.838Z,-1.40
2022-12-11T22:19:32.519Z,-1.44
2022-12-11T22:22:00.152Z,-1.57
2022-12-11T22:24:35.004Z,-1.40
2022-12-11T22:27:06.053Z,-1.33
2022-12-11T22:29:33.507Z,-1.53
2022-12-11T22:32:04.517Z,-1.58
2022-12-11T22:34:31.690Z,-1.28
2022-12-11T22:36:59.439Z,-1.38
2022-12-11T22:39:26.526Z,-1.36
2022-12-11T22:41:59.591Z,-1.24
2022-12-11T22:44:27.114Z,-1.31
2022-12-11T22:46:54.538Z,-1.28
2022-12-11T22:49:21.847Z,-1.24
2022-12-11T22:51:49.444Z,-1.19
2022-12-11T22:54:17.235Z,-0.98
2022-12-11T22:56:50.493Z,-0.90
2022-12-11T22:59:17.647Z,-0.89
2022-12-11T23:01:44.783Z,-0.82
2022-12-11T23:04:13.423Z,-0.87
2022-12-11T23:06:40.874Z,-1.15
2022-12-11T23:09:08.521Z,-1.03
2022-12-11T23:11:39.936Z,-0.85
2022-12-11T23:14:16.363Z,-1.22
2022-12-11T23:16:44.326Z,-1.09
2022-12-11T23:19:12.942Z,-0.98
2022-12-11T23:21:40.646Z,-0.80
2022-12-11T23:24:08.380Z,-0.76
2022-12-11T23:26:36.046Z,-0.75
2022-12-11T23:29:07.487Z,-0.74
2022-12-11T23:31:34.758Z,-0.75
2022-12-11T23:34:02.118Z,-0.70
2022-12-11T23:36:30.412Z,-0.64
2022-12-11T23:38:57.555Z,-1.04
2022-12-11T23:41:25.285Z,-1.17
2022-12-11T23:43:52.655Z,-1.28
2022-12-11T23:46:24.327Z,-1.22
2022-12-11T23:48:53.183Z,-1.00
2022-12-11T23:51:22.945Z,-0.99
2022-12-11T23:53:50.587Z,-1.04
2022-12-11T23:56:28.549Z,-0.91
2022-12-11T23:58:57.092Z,-0.92
